createdAt,value
2023-01-28T00:00:55.631Z,4.90
2023-01-28T00:03:23.550Z,4.72
2023-01-28T00:05:50.956Z,4.32
2023-01-28T00:08:18.001Z,4.50
2023-01-28T00:10:45.735Z,4.57
2023-01-28T00:13:16.870Z,4.68
2023-01-28T00:15:44.772Z,4.73
2023-01-28T00:18:13.571Z,5.05
2023-01-28T00:20:40.707Z,5.15
2023-01-28T00:23:07.797Z,4.70
2023-01-28T00:25:35.813Z,5.15
2023-01-28T00:28:02.774Z,5.22
2023-01-28T00:30:29.914Z,5.35
2023-01-28T00:32:56.925Z,5.05
2023-01-28T00:35:24.415Z,5.35
2023-01-28T00:37:51.561Z,4.97
2023-01-28T00:40:19.444Z,5.05
2023-01-28T00:42:46.819Z,5.32
2023-01-28T00:45:15.111Z,5.10
2023-01-28T00:47:42.672Z,4.95
2023-01-28T00:50:10.229Z,4.88
2023-01-28T00:52:37.692Z,5.18
2023-01-28T00:55:05.354Z,5.57
2023-01-28T00:57:32.399Z,4.88
2023-01-28T01:00:00.233Z,5.40
2023-01-28T01:02:30.885Z,6.18
2023-01-28T01:05:00.789Z,5.55
2023-01-28T01:07:35.571Z,5.47
2023-01-28T01:10:02.806Z,5.35
2023-01-28T01:12:30.106Z,6.30
2023-01-28T01:15:00.903Z,6.00
2023-01-28T01:17:31.544Z,6.35
2023-01-28T01:19:58.574Z,5.68
2023-01-28T01:22:26.027Z,5.90
2023-01-28T01:24:53.165Z,5.63
2023-01-28T01:27:21.468Z,6.00
2023-01-28T01:29:48.467Z,6.40
2023-01-28T01:32:15.343Z,6.53
2023-01-28T01:34:42.943Z,6.57
2023-01-28T01:37:10.977Z,5.65
2023-01-28T01:39:38.033Z,6.88
2023-01-28T01:42:05.163Z,7.20
2023-01-28T01:45:10.119Z,7.13
2023-01-28T01:47:58.461Z,7.25
2023-01-28T01:50:38.133Z,7.15
2023-01-28T01:53:17.487Z,8.20
2023-01-28T01:55:48.680Z,8.20
2023-01-28T01:58:22.882Z,8.85
2023-01-28T02:00:49.874Z,9.25
2023-01-28T02:03:20.026Z,9.05
2023-01-28T02:05:49.499Z,9.85
2023-01-28T02:08:22.263Z,9.85
2023-01-28T02:10:50.970Z,10.00
2023-01-28T02:13:25.057Z,9.65
2023-01-28T02:15:52.210Z,9.73
2023-01-28T02:18:19.345Z,10.05
2023-01-28T02:21:04.365Z,9.52
2023-01-28T02:23:34.463Z,9.82
2023-01-28T02:26:34.746Z,8.90
2023-01-28T02:29:12.959Z,10.10
2023-01-28T02:31:47.019Z,9.77
2023-01-28T02:34:16.800Z,9.35
2023-01-28T02:37:00.118Z,9.65
2023-01-28T02:39:32.303Z,9.15
2023-01-28T02:42:11.327Z,10.18
2023-01-28T02:44:39.318Z,10.15
2023-01-28T02:47:32.536Z,9.25
2023-01-28T02:50:04.765Z,10.43
2023-01-28T02:53:11.554Z,9.90
2023-01-28T02:55:50.592Z,10.48
2023-01-28T02:58:37.863Z,9.73
2023-01-28T03:01:20.472Z,9.40
2023-01-28T03:04:09.835Z,9.90
2023-01-28T03:06:44.536Z,9.43
2023-01-28T03:09:23.549Z,10.13
2023-01-28T03:12:21.724Z,10.50
2023-01-28T03:15:16.566Z,9.30
2023-01-28T03:18:05.699Z,9.32
2023-01-28T03:21:00.718Z,10.82
2023-01-28T03:24:02.794Z,10.52
2023-01-28T03:26:55.439Z,9.93
2023-01-28T03:29:45.896Z,9.90
2023-01-28T03:32:36.858Z,10.23
2023-01-28T03:35:25.016Z,9.75
2023-01-28T03:37:52.460Z,10.15
2023-01-28T03:40:23.590Z,7.85
2023-01-28T03:42:52.293Z,9.48
2023-01-28T03:45:32.241Z,10.00
2023-01-28T03:48:00.647Z,9.82
2023-01-28T03:50:27.966Z,11.13
2023-01-28T03:53:13.552Z,10.23
2023-01-28T03:55:51.987Z,10.50
2023-01-28T03:58:19.812Z,9.63
2023-01-28T04:00:47.893Z,10.38
2023-01-28T04:03:19.180Z,9.43
2023-01-28T04:06:06.511Z,9.30
2023-01-28T04:08:53.846Z,9.52
2023-01-28T04:11:30.105Z,10.52
2023-01-28T04:13:58.721Z,9.85
2023-01-28T04:16:27.486Z,10.80
2023-01-28T04:18:56.228Z,9.93
2023-01-28T04:21:23.547Z,10.43
2023-01-28T04:23:51.019Z,10.38
2023-01-28T04:26:20.244Z,10.00
2023-01-28T04:28:47.555Z,9.98
2023-01-28T04:31:14.813Z,9.77
2023-01-28T04:33:41.802Z,11.00
2023-01-28T04:36:26.542Z,10.20
2023-01-28T04:39:12.301Z,10.18
2023-01-28T04:41:59.884Z,9.98
2023-01-28T04:44:44.160Z,9.55
2023-01-28T04:47:32.190Z,10.93
2023-01-28T04:50:31.544Z,9.98
2023-01-28T04:53:34.178Z,10.35
2023-01-28T04:56:07.471Z,9.52
2023-01-28T04:58:35.915Z,11.10
2023-01-28T05:01:06.514Z,9.82
2023-01-28T05:03:36.152Z,10.20
2023-01-28T05:06:05.341Z,10.90
2023-01-28T05:08:43.684Z,9.23
2023-01-28T05:11:11.991Z,9.25
2023-01-28T05:13:39.841Z,10.20
2023-01-28T05:16:08.502Z,9.63
2023-01-28T05:18:35.802Z,10.23
2023-01-28T05:21:09.906Z,9.90
2023-01-28T05:23:40.143Z,9.95
2023-01-28T05:26:07.145Z,11.57
2023-01-28T05:28:35.451Z,10.25
2023-01-28T05:31:07.167Z,10.18
2023-01-28T05:33:34.433Z,9.90
2023-01-28T05:36:03.394Z,9.88
2023-01-28T05:38:30.723Z,9.48
2023-01-28T05:40:57.830Z,10.32
2023-01-28T05:43:25.230Z,9.63
2023-01-28T05:46:04.728Z,9.85
2023-01-28T05:48:52.765Z,9.85
2023-01-28T05:51:41.024Z,9.70
2023-01-28T05:54:09.956Z,10.07
2023-01-28T05:56:37.003Z,10.50
2023-01-28T05:59:05.497Z,10.05
2023-01-28T06:01:34.457Z,10.88
2023-01-28T06:04:01.483Z,10.27
2023-01-28T06:06:31.298Z,10.15
2023-01-28T06:08:58.667Z,10.23
2023-01-28T06:11:28.785Z,9.82
2023-01-28T06:14:00.559Z,11.20
2023-01-28T06:16:52.398Z,9.30
2023-01-28T06:19:27.098Z,10.75
2023-01-28T06:21:54.211Z,10.40
2023-01-28T06:24:21.753Z,9.70
2023-01-28T06:26:48.758Z,9.73
2023-01-28T06:29:15.806Z,10.32
2023-01-28T06:31:43.277Z,10.63
2023-01-28T06:34:11.067Z,10.15
2023-01-28T06:36:38.226Z,9.23
2023-01-28T06:39:05.477Z,10.02
2023-01-28T06:41:32.591Z,10.48
2023-01-28T06:43:59.535Z,10.07
2023-01-28T06:46:26.585Z,9.90
2023-01-28T06:48:53.691Z,9.52
2023-01-28T06:51:22.292Z,9.80
2023-01-28T06:53:49.204Z,10.57
2023-01-28T06:56:16.113Z,10.15
2023-01-28T06:58:43.157Z,9.45
2023-01-28T07:01:10.672Z,9.35
2023-01-28T07:03:37.651Z,10.27
2023-01-28T07:06:05.145Z,10.02
2023-01-28T07:08:33.172Z,11.00
2023-01-28T07:11:00.777Z,10.73
2023-01-28T07:13:27.797Z,9.77
2023-01-28T07:16:01.527Z,10.25
2023-01-28T07:18:28.479Z,10.10
2023-01-28T07:20:55.448Z,9.90
2023-01-28T07:23:22.670Z,10.50
2023-01-28T07:25:49.816Z,10.85
2023-01-28T07:28:21.511Z,10.30
2023-01-28T07:30:52.560Z,10.38
2023-01-28T07:33:20.653Z,10.32
2023-01-28T07:35:49.790Z,9.95
2023-01-28T07:38:16.751Z,9.98
2023-01-28T07:40:43.767Z,10.10
2023-01-28T07:43:11.236Z,10.88
2023-01-28T07:45:40.396Z,10.75
2023-01-28T07:48:08.556Z,10.93
2023-01-28T07:50:37.818Z,9.75
2023-01-28T07:53:06.694Z,9.90
2023-01-28T07:55:36.242Z,9.85
2023-01-28T07:58:04.999Z,11.23
2023-01-28T08:00:34.269Z,10.13
2023-01-28T08:03:11.924Z,9.82
2023-01-28T08:05:47.984Z,10.73
2023-01-28T08:08:15.504Z,9.88
2023-01-28T08:10:47.171Z,9.95
2023-01-28T08:13:16.030Z,11.63
2023-01-28T08:15:43.461Z,10.63
2023-01-28T08:18:15.447Z,10.93
2023-01-28T08:20:45.015Z,10.02
2023-01-28T08:23:18.393Z,10.02
2023-01-28T08:25:46.381Z,9.75
2023-01-28T08:28:14.782Z,12.23
2023-01-28T08:30:42.392Z,11.57
2023-01-28T08:33:12.325Z,12.25
2023-01-28T08:35:40.278Z,11.57
2023-01-28T08:38:08.089Z,13.00
2023-01-28T08:40:35.689Z,11.07
2023-01-28T08:43:03.534Z,11.57
2023-01-28T08:45:30.668Z,10.95
2023-01-28T08:48:08.632Z,10.57
2023-01-28T08:50:37.916Z,10.20
2023-01-28T08:53:07.645Z,10.70
2023-01-28T08:55:35.079Z,11.57
2023-01-28T08:58:11.701Z,11.43
2023-01-28T09:00:40.012Z,11.00
2023-01-28T09:03:07.283Z,11.10
2023-01-28T09:05:35.192Z,12.35
2023-01-28T09:08:07.027Z,10.95
2023-01-28T09:10:34.211Z,11.35
2023-01-28T09:13:15.666Z,11.57
2023-01-28T09:15:43.361Z,11.48
2023-01-28T09:18:10.895Z,11.35
2023-01-28T09:20:39.533Z,11.55
2023-01-28T09:23:07.417Z,11.32
2023-01-28T09:25:36.338Z,11.85
2023-01-28T09:28:04.950Z,10.63
2023-01-28T09:30:32.326Z,10.52
2023-01-28T09:32:59.787Z,9.65
2023-01-28T09:35:28.570Z,9.40
2023-01-28T09:37:59.657Z,10.30
2023-01-28T09:40:44.623Z,10.27
2023-01-28T09:43:40.847Z,14.75
2023-01-28T09:46:13.460Z,12.00
2023-01-28T09:48:48.748Z,13.77
2023-01-28T09:51:33.706Z,12.05
2023-01-28T09:54:39.505Z,10.88
2023-01-28T09:57:14.048Z,10.70
2023-01-28T09:59:41.278Z,10.75
2023-01-28T10:02:46.081Z,9.95
2023-01-28T10:05:22.416Z,10.10
2023-01-28T10:08:17.952Z,9.52
2023-01-28T10:10:54.522Z,9.23
2023-01-28T10:13:22.079Z,8.80
2023-01-28T10:16:20.415Z,9.15
2023-01-28T10:18:55.284Z,9.85
2023-01-28T10:21:56.031Z,8.48
2023-01-28T10:24:50.581Z,9.18
2023-01-28T10:27:21.583Z,10.10
2023-01-28T10:29:50.828Z,9.10
2023-01-28T10:32:32.213Z,9.45
2023-01-28T10:35:03.233Z,9.13
2023-01-28T10:37:40.400Z,9.13
2023-01-28T10:40:18.117Z,9.85
2023-01-28T10:42:45.415Z,10.00
2023-01-28T10:45:23.191Z,9.05
2023-01-28T10:48:05.499Z,9.77
2023-01-28T10:50:32.866Z,10.02
2023-01-28T10:53:05.000Z,9.65
2023-01-28T10:55:48.028Z,11.45
2023-01-28T10:58:21.986Z,10.48
2023-01-28T11:00:55.052Z,10.30
2023-01-28T11:03:24.270Z,9.07
2023-01-28T11:05:53.107Z,10.25
2023-01-28T11:08:21.475Z,9.35
2023-01-28T11:10:49.652Z,9.05
2023-01-28T11:13:21.155Z,9.00
2023-01-28T11:16:01.080Z,8.95
2023-01-28T11:18:42.082Z,8.45
2023-01-28T11:21:19.710Z,7.95
2023-01-28T11:24:00.250Z,7.78
2023-01-28T11:26:34.474Z,8.10
2023-01-28T11:29:01.618Z,8.07
2023-01-28T11:31:29.162Z,8.35
2023-01-28T11:33:59.507Z,9.20
2023-01-28T11:36:32.186Z,8.52
2023-01-28T11:39:00.482Z,8.77
2023-01-28T11:41:33.563Z,8.10
2023-01-28T11:44:19.376Z,8.68
2023-01-28T11:47:11.046Z,9.43
2023-01-28T11:50:09.259Z,8.60
2023-01-28T11:53:04.860Z,8.50
2023-01-28T11:55:34.049Z,8.35
2023-01-28T11:58:17.111Z,8.00
2023-01-28T12:00:54.008Z,8.82
2023-01-28T12:03:52.265Z,9.32
2023-01-28T12:06:51.347Z,8.75
2023-01-28T12:09:31.982Z,8.52
2023-01-28T12:12:25.814Z,9.32
2023-01-28T12:15:02.095Z,9.25
2023-01-28T12:17:50.791Z,8.90
2023-01-28T12:20:34.021Z,9.27
2023-01-28T12:23:25.333Z,9.10
2023-01-28T12:26:11.428Z,8.43
2023-01-28T12:29:06.826Z,9.23
2023-01-28T12:32:08.424Z,9.30
2023-01-28T12:34:44.377Z,9.18
2023-01-28T12:37:24.314Z,8.70
2023-01-28T12:39:57.177Z,9.25
2023-01-28T12:42:45.226Z,8.75
2023-01-28T12:45:12.153Z,8.48
2023-01-28T12:47:45.203Z,11.73
2023-01-28T12:50:29.257Z,10.38
2023-01-28T12:53:01.538Z,11.10
2023-01-28T12:55:41.185Z,8.73
2023-01-28T12:58:18.904Z,9.52
2023-01-28T13:00:50.918Z,9.15
2023-01-28T13:03:26.309Z,8.77
2023-01-28T13:05:59.166Z,9.07
2023-01-28T13:08:30.679Z,8.95
2023-01-28T13:11:00.587Z,9.23
2023-01-28T13:13:42.372Z,9.07
2023-01-28T13:16:10.899Z,9.32
2023-01-28T13:18:41.942Z,9.90
2023-01-28T13:21:40.062Z,9.30
2023-01-28T13:24:14.720Z,8.45
2023-01-28T13:26:58.372Z,8.60
2023-01-28T13:29:25.303Z,8.75
2023-01-28T13:32:03.924Z,10.02
2023-01-28T13:35:00.040Z,8.70
2023-01-28T13:37:38.664Z,9.10
2023-01-28T13:40:14.987Z,8.57
2023-01-28T13:42:42.828Z,8.27
2023-01-28T13:45:15.823Z,9.52
2023-01-28T13:48:01.382Z,9.50
2023-01-28T13:50:39.526Z,8.55
2023-01-28T13:53:51.583Z,8.57
2023-01-28T13:56:26.020Z,9.00
2023-01-28T13:59:34.744Z,9.05
2023-01-28T14:02:38.287Z,8.60
2023-01-28T14:05:24.273Z,8.65
2023-01-28T14:08:38.260Z,9.32
2023-01-28T14:11:30.433Z,8.57
2023-01-28T14:14:16.295Z,9.05
2023-01-28T14:17:01.394Z,9.13
2023-01-28T14:19:38.016Z,9.65
2023-01-28T14:22:09.935Z,10.07
2023-01-28T14:24:40.538Z,9.43
2023-01-28T14:27:22.856Z,9.00
2023-01-28T14:30:14.471Z,10.02
2023-01-28T14:32:48.025Z,9.23
2023-01-28T14:35:38.694Z,9.70
2023-01-28T14:38:14.137Z,8.75
2023-01-28T14:40:42.025Z,9.93
2023-01-28T14:43:16.755Z,12.10
2023-01-28T14:45:59.417Z,10.13
2023-01-28T14:48:32.319Z,12.65
2023-01-28T14:51:40.970Z,9.45
2023-01-28T14:54:49.229Z,9.25
2023-01-28T14:57:37.078Z,9.32
2023-01-28T15:00:08.232Z,9.23
2023-01-28T15:02:35.386Z,9.27
2023-01-28T15:05:18.114Z,10.00
2023-01-28T15:07:47.090Z,9.75
2023-01-28T15:10:30.047Z,9.50
2023-01-28T15:13:30.551Z,10.13
2023-01-28T15:16:00.900Z,9.95
2023-01-28T15:18:43.025Z,10.70
2023-01-28T15:21:12.172Z,10.20
2023-01-28T15:23:42.182Z,9.73
2023-01-28T15:26:32.656Z,9.57
2023-01-28T15:29:00.457Z,8.73
2023-01-28T15:31:33.149Z,10.45
2023-01-28T15:34:05.151Z,10.00
2023-01-28T15:36:32.254Z,10.38
2023-01-28T15:39:02.362Z,10.30
2023-01-28T15:41:35.114Z,10.65
2023-01-28T15:44:03.223Z,10.23
2023-01-28T15:46:32.859Z,9.82
2023-01-28T15:49:03.066Z,9.90
2023-01-28T15:51:32.356Z,10.30
2023-01-28T15:54:09.108Z,10.20
2023-01-28T15:56:36.857Z,10.27
2023-01-28T15:59:16.244Z,9.85
2023-01-28T16:01:43.886Z,10.38
2023-01-28T16:04:24.962Z,10.10
2023-01-28T16:06:53.365Z,11.05
2023-01-28T16:09:30.367Z,11.32
2023-01-28T16:12:09.684Z,10.93
2023-01-28T16:14:49.166Z,10.30
2023-01-28T16:17:25.870Z,11.93
2023-01-28T16:19:59.844Z,11.02
2023-01-28T16:22:36.951Z,11.48
2023-01-28T16:25:23.509Z,10.55
2023-01-28T16:27:50.720Z,10.50
2023-01-28T16:30:18.558Z,10.65
2023-01-28T16:32:46.255Z,10.15
2023-01-28T16:35:22.425Z,10.95
2023-01-28T16:37:50.600Z,11.10
2023-01-28T16:40:20.089Z,11.57
2023-01-28T16:42:48.697Z,13.23
2023-01-28T16:45:21.663Z,14.10
2023-01-28T16:47:49.396Z,12.95
2023-01-28T16:50:22.102Z,13.52
2023-01-28T16:52:51.880Z,14.60
2023-01-28T16:55:21.086Z,14.75
2023-01-28T16:57:50.461Z,14.40
2023-01-28T17:00:19.916Z,15.73
2023-01-28T17:02:47.263Z,15.60
2023-01-28T17:05:15.767Z,15.77
2023-01-28T17:07:43.423Z,14.85
2023-01-28T17:10:11.362Z,13.52
2023-01-28T17:12:38.285Z,13.85
2023-01-28T17:15:05.772Z,12.55
2023-01-28T17:17:33.041Z,14.30
2023-01-28T17:20:02.632Z,13.27
2023-01-28T17:22:29.528Z,13.57
2023-01-28T17:24:56.548Z,13.50
2023-01-28T17:27:23.516Z,14.43
2023-01-28T17:29:51.894Z,14.48
2023-01-28T17:32:18.864Z,13.48
2023-01-28T17:34:48.137Z,14.18
2023-01-28T17:37:15.297Z,15.40
2023-01-28T17:39:42.291Z,15.00
2023-01-28T17:42:09.303Z,19.20
2023-01-28T17:44:36.440Z,16.77
2023-01-28T17:47:03.549Z,16.33
2023-01-28T17:49:30.586Z,16.13
2023-01-28T17:51:57.498Z,17.13
2023-01-28T17:54:25.762Z,16.50
2023-01-28T17:56:53.198Z,15.88
2023-01-28T17:59:22.152Z,18.65
2023-01-28T18:01:50.880Z,18.35
2023-01-28T18:04:20.048Z,16.80
2023-01-28T18:06:48.606Z,17.25
2023-01-28T18:09:15.499Z,16.65
2023-01-28T18:11:42.607Z,14.68
2023-01-28T18:14:09.633Z,14.23
2023-01-28T18:16:36.547Z,13.68
2023-01-28T18:19:03.534Z,13.60
2023-01-28T18:21:46.497Z,14.82
2023-01-28T18:24:22.067Z,15.05
2023-01-28T18:26:49.720Z,14.00
2023-01-28T18:29:20.692Z,13.77
2023-01-28T18:31:50.727Z,14.37
2023-01-28T18:34:18.597Z,13.85
2023-01-28T18:36:46.172Z,13.55
2023-01-28T18:39:17.922Z,13.98
2023-01-28T18:41:45.220Z,15.00
2023-01-28T18:44:13.878Z,13.40
2023-01-28T18:46:43.549Z,14.73
2023-01-28T18:49:10.640Z,34.95
2023-01-28T18:51:39.339Z,20.17
2023-01-28T18:54:11.575Z,17.05
2023-01-28T18:56:42.298Z,16.40
2023-01-28T18:59:12.768Z,15.95
2023-01-28T19:01:42.868Z,17.13
2023-01-28T19:04:10.525Z,15.80
2023-01-28T19:06:37.904Z,15.82
2023-01-28T19:09:09.133Z,16.27
2023-01-28T19:11:38.547Z,16.48
2023-01-28T19:14:06.540Z,16.90
2023-01-28T19:16:52.218Z,17.13
2023-01-28T19:19:19.294Z,16.73
2023-01-28T19:21:46.245Z,18.63
2023-01-28T19:24:14.285Z,18.92
2023-01-28T19:26:43.925Z,18.52
2023-01-28T19:29:14.574Z,18.20
2023-01-28T19:31:44.347Z,18.50
2023-01-28T19:34:11.753Z,18.55
2023-01-28T19:36:39.042Z,19.42
2023-01-28T19:39:08.495Z,19.95
2023-01-28T19:41:36.536Z,20.98
2023-01-28T19:44:05.016Z,18.75
2023-01-28T19:46:33.321Z,18.70
2023-01-28T19:49:00.331Z,17.55
2023-01-28T19:51:27.523Z,17.42
2023-01-28T19:53:55.440Z,16.13
2023-01-28T19:56:24.437Z,16.85
2023-01-28T19:58:53.992Z,17.40
2023-01-28T20:01:24.108Z,15.00
2023-01-28T20:03:57.534Z,16.60
2023-01-28T20:06:27.597Z,15.82
2023-01-28T20:09:04.517Z,16.30
2023-01-28T20:11:31.885Z,16.20
2023-01-28T20:13:59.891Z,17.00
2023-01-28T20:16:32.485Z,16.60
2023-01-28T20:21:33.216Z,18.80
2023-01-28T20:24:02.412Z,18.92
2023-01-28T20:26:33.217Z,20.27
2023-01-28T20:29:03.237Z,21.02
2023-01-28T20:31:31.739Z,19.65
2023-01-28T20:33:59.023Z,24.42
2023-01-28T20:36:26.093Z,24.70
2023-01-28T20:38:53.105Z,22.35
2023-01-28T20:41:22.852Z,22.98
2023-01-28T20:43:51.447Z,21.75
2023-01-28T20:46:18.386Z,24.00
2023-01-28T20:48:45.944Z,23.23
2023-01-28T20:51:38.501Z,22.05
2023-01-28T20:54:13.813Z,23.70
2023-01-28T20:56:41.465Z,22.15
2023-01-28T20:59:10.361Z,22.05
2023-01-28T21:01:37.820Z,22.17
2023-01-28T21:04:10.337Z,22.02
2023-01-28T21:06:39.835Z,24.55
2023-01-28T21:09:07.707Z,24.25
2023-01-28T21:11:34.916Z,23.52
2023-01-28T21:14:02.035Z,24.33
2023-01-28T21:16:29.367Z,22.05
2023-01-28T21:18:56.348Z,24.38
2023-01-28T21:21:26.242Z,22.88
2023-01-28T21:23:56.982Z,22.58
2023-01-28T21:26:25.134Z,23.73
2023-01-28T21:28:52.288Z,22.10
2023-01-28T21:31:21.632Z,22.23
2023-01-28T21:33:53.231Z,21.25
2023-01-28T21:36:20.400Z,21.98
2023-01-28T21:38:56.183Z,20.90
2023-01-28T21:41:24.108Z,22.45
2023-01-28T21:43:53.985Z,20.75
2023-01-28T21:46:22.751Z,20.70
2023-01-28T21:48:55.264Z,21.23
2023-01-28T21:54:59.251Z,19.35
2023-01-28T21:57:26.325Z,20.98
2023-01-28T21:59:53.327Z,20.08
2023-01-28T22:02:23.761Z,20.58
2023-01-28T22:04:51.025Z,21.15
2023-01-28T22:07:20.044Z,21.70
2023-01-28T22:09:53.148Z,21.17
2023-01-28T22:12:21.685Z,22.77
2023-01-28T22:14:50.263Z,25.67
2023-01-28T22:17:20.062Z,24.83
2023-01-28T22:19:48.102Z,26.45
2023-01-28T22:22:18.340Z,23.60
2023-01-28T22:24:46.339Z,23.20
2023-01-28T22:27:14.223Z,24.25
2023-01-28T22:29:41.406Z,23.50
2023-01-28T22:32:08.622Z,22.73
2023-01-28T22:34:35.652Z,25.85
2023-01-28T22:37:02.666Z,24.95
2023-01-28T22:39:29.933Z,25.70
2023-01-28T22:41:57.053Z,26.65
2023-01-28T22:44:24.212Z,24.33
2023-01-28T22:46:51.259Z,21.88
2023-01-28T22:49:18.247Z,22.15
2023-01-28T22:51:45.212Z,21.95
2023-01-28T22:54:13.804Z,22.70
2023-01-28T22:56:40.910Z,22.58
2023-01-28T22:59:07.859Z,22.70
2023-01-28T23:01:35.977Z,23.58
2023-01-28T23:04:02.930Z,23.33
2023-01-28T23:06:32.121Z,22.02
2023-01-28T23:08:59.216Z,23.30
2023-01-28T23:11:28.661Z,24.55
2023-01-28T23:14:26.683Z,23.35
2023-01-28T23:17:21.971Z,21.90
2023-01-28T23:20:09.604Z,24.40
2023-01-28T23:25:49.241Z,25.00
2023-01-28T23:28:16.667Z,23.48
2023-01-28T23:30:43.838Z,27.05
2023-01-28T23:33:11.584Z,28.58
2023-01-28T23:35:38.624Z,26.40
2023-01-28T23:38:15.008Z,24.17
2023-01-28T23:40:42.329Z,25.17
2023-01-28T23:43:18.752Z,25.10
2023-01-28T23:45:53.593Z,24.02
2023-01-28T23:48:20.942Z,24.13
2023-01-28T23:50:53.774Z,24.45
2023-01-28T23:53:20.933Z,25.55
2023-01-28T23:55:48.070Z,25.13
2023-01-28T23:58:15.147Z,24.67
